Apiliotis — SYVY — position and weather

sailwx.info

Track history (hours):
 
Tides and Currents Weather Stations Pressure Air Temp Water Temp Dewpoint Dewpoint Depression Visibility Wind Speed Wind Dir Waves Ship Positions

Apiliotis

Last reported at 2017-May-22 16:34 UTC. Time now 2017-May-23 17:05 UTC.
Position N 36°59' E 025°17'.

Length 79 m; draft 4.5 m.

Type: Ship. MMSI: 240438000.

Date/timePositionNaut miles runAvg speedWind from/ knotsBaromVisibWave heightAir tempDewpointWater temp
2017-May-22 16:34N 36°59' E 025°17'112.0
2017-May-22 16:30N 37°00' E 025°17'612.2
2017-May-22 16:00N 37°06' E 025°20'2 3.4
2017-May-22 15:30N 37°06' E 025°22'0 0.2
2017-May-22 15:00N 37°06' E 025°22'0 0.4
2017-May-22 14:00N 37°06' E 025°22'0 0.0
2017-May-22 13:30N 37°06' E 025°22'0 1.0
2017-May-22 13:00N 37°06' E 025°22'0 0.2
2017-May-22 12:30N 37°06' E 025°22'0 0.0
2017-May-22 12:00N 37°06' E 025°22'0 0.0
2017-May-22 11:30N 37°06' E 025°22'4 8.0
2017-May-22 11:00N 37°09' E 025°19'5 9.2
2017-May-22 10:30N 37°09' E 025°13'5 9.4
2017-May-22 10:00N 37°07' E 025°08'2 0.7
2017-May-22 08:00N 37°05' E 025°09'0 0.6
2017-May-22 07:24N 37°05' E 025°08'0 0.0
2017-May-22 07:00N 37°05' E 025°08'0 0.1
2017-May-22 04:41N 37°05' E 025°09'1 8.8
2017-May-22 04:30N 37°06' E 025°07'4 8.8
2017-May-22 04:00N 37°06' E 025°01'13 0.5
2017-May-21 02:37N 37°14' E 024°48'111.1
2017-May-21 02:30N 37°15' E 024°49'611.2
2017-May-21 02:00N 37°19' E 024°54'611.1
2017-May-21 01:30N 37°23' E 024°59'3 6.5
2017-May-21 00:59N 37°26' E 024°56'0 0.0
2017-May-21 00:30N 37°26' E 024°56'0 0.0
2017-May-21 00:00N 37°26' E 024°56'0 0.0
2017-May-20 23:30N 37°26' E 024°56'0 0.0
2017-May-20 23:00N 37°26' E 024°56'0 0.0
2017-May-20 22:30N 37°26' E 024°56'0 0.0
2017-May-20 22:00N 37°26' E 024°56'0 0.0
2017-May-20 21:30N 37°26' E 024°56'0 0.0
2017-May-20 20:40N 37°26' E 024°56'0 0.0
2017-May-20 20:30N 37°26' E 024°56'0 0.0
2017-May-20 20:00N 37°26' E 024°56'0 0.0
2017-May-20 19:15N 37°26' E 024°56'0 0.0
2017-May-20 18:58N 37°26' E 024°56'0 0.0
2017-May-20 18:30N 37°26' E 024°56'0 0.0
2017-May-20 18:00N 37°26' E 024°56'0 0.0
2017-May-20 17:27N 37°26' E 024°56'0 0.0
2017-May-20 17:00N 37°26' E 024°56'0 0.0
2017-May-20 16:29N 37°26' E 024°56'0 0.0
2017-May-20 15:03N 37°26' E 024°56'0 0.0
2017-May-20 13:51N 37°26' E 024°56'0 0.0
2017-May-20 13:30N 37°26' E 024°56'0 0.0
2017-May-20 13:00N 37°26' E 024°56'4 8.2
2017-May-20 12:29N 37°28' E 025°01'611.8
2017-May-20 12:00N 37°31' E 025°07'2 4.5
2017-May-20 11:30N 37°32' E 025°09'0 0.0
2017-May-20 11:00N 37°32' E 025°09'0 0.0
2017-May-20 10:30N 37°32' E 025°09'0 0.0
2017-May-20 10:00N 37°32' E 025°09'0 0.0
2017-May-20 09:30N 37°32' E 025°09'1 1.3
2017-May-20 09:00N 37°32' E 025°09'611.7
2017-May-20 08:30N 37°29' E 025°15'3 6.7
2017-May-20 08:00N 37°28' E 025°20'0 0.0
2017-May-20 07:30N 37°28' E 025°20'0 0.0
2017-May-20 07:00N 37°28' E 025°20'0 0.0
2017-May-20 06:30N 37°28' E 025°20'0 0.0
2017-May-20 06:00N 37°28' E 025°20'0 0.0
2017-May-20 05:30N 37°28' E 025°20'0 0.0
2017-May-20 05:00N 37°28' E 025°20'0 0.0
2017-May-20 04:30N 37°28' E 025°20'2 4.9
2017-May-20 04:00N 37°29' E 025°17'612.3
2017-May-20 03:30N 37°35' E 025°21'611.7
2017-May-20 03:00N 37°40' E 025°25'5 9.4
2017-May-20 02:30N 37°41' E 025°31'510.3
2017-May-20 02:00N 37°41' E 025°37'510.5
2017-May-20 01:30N 37°41' E 025°44'510.5
2017-May-20 01:00N 37°40' E 025°51'  
2017-May-12 17:11N 36°59' E 025°17'211.0
2017-May-12 17:00N 37°01' E 025°17'  
Track history (hours):
 
Tides and Currents Weather Stations Pressure Air Temp Water Temp Dewpoint Dewpoint Depression Visibility Wind Speed Wind Dir Waves Ship Positions

Apiliotis

Last reported at 2017-May-22 16:34 UTC. Time now 2017-May-23 17:05 UTC.
Position N 36°59' E 025°17'.

Length 79 m; draft 4.5 m.

Type: Ship. MMSI: 240438000.

Date/timePositionNaut miles runAvg speedWind from/ knotsBaromVisibWave heightAir tempDewpointWater temp
2017-May-22 16:34N 36°59' E 025°17'112.0
2017-May-22 16:30N 37°00' E 025°17'612.2
2017-May-22 16:00N 37°06' E 025°20'2 3.4
2017-May-22 15:30N 37°06' E 025°22'0 0.2
2017-May-22 15:00N 37°06' E 025°22'0 0.4
2017-May-22 14:00N 37°06' E 025°22'0 0.0
2017-May-22 13:30N 37°06' E 025°22'0 1.0
2017-May-22 13:00N 37°06' E 025°22'0 0.2
2017-May-22 12:30N 37°06' E 025°22'0 0.0
2017-May-22 12:00N 37°06' E 025°22'0 0.0
2017-May-22 11:30N 37°06' E 025°22'4 8.0
2017-May-22 11:00N 37°09' E 025°19'5 9.2
2017-May-22 10:30N 37°09' E 025°13'5 9.4
2017-May-22 10:00N 37°07' E 025°08'2 0.7
2017-May-22 08:00N 37°05' E 025°09'0 0.6
2017-May-22 07:24N 37°05' E 025°08'0 0.0
2017-May-22 07:00N 37°05' E 025°08'0 0.1
2017-May-22 04:41N 37°05' E 025°09'1 8.8
2017-May-22 04:30N 37°06' E 025°07'4 8.8
2017-May-22 04:00N 37°06' E 025°01'13 0.5
2017-May-21 02:37N 37°14' E 024°48'111.1
2017-May-21 02:30N 37°15' E 024°49'611.2
2017-May-21 02:00N 37°19' E 024°54'611.1
2017-May-21 01:30N 37°23' E 024°59'3 6.5
2017-May-21 00:59N 37°26' E 024°56'0 0.0
2017-May-21 00:30N 37°26' E 024°56'0 0.0
2017-May-21 00:00N 37°26' E 024°56'0 0.0
2017-May-20 23:30N 37°26' E 024°56'0 0.0
2017-May-20 23:00N 37°26' E 024°56'0 0.0
2017-May-20 22:30N 37°26' E 024°56'0 0.0
2017-May-20 22:00N 37°26' E 024°56'0 0.0
2017-May-20 21:30N 37°26' E 024°56'0 0.0
2017-May-20 20:40N 37°26' E 024°56'0 0.0
2017-May-20 20:30N 37°26' E 024°56'0 0.0
2017-May-20 20:00N 37°26' E 024°56'0 0.0
2017-May-20 19:15N 37°26' E 024°56'0 0.0
2017-May-20 18:58N 37°26' E 024°56'0 0.0
2017-May-20 18:30N 37°26' E 024°56'0 0.0
2017-May-20 18:00N 37°26' E 024°56'0 0.0
2017-May-20 17:27N 37°26' E 024°56'0 0.0
2017-May-20 17:00N 37°26' E 024°56'0 0.0
2017-May-20 16:29N 37°26' E 024°56'0 0.0
2017-May-20 15:03N 37°26' E 024°56'0 0.0
2017-May-20 13:51N 37°26' E 024°56'0 0.0
2017-May-20 13:30N 37°26' E 024°56'0 0.0
2017-May-20 13:00N 37°26' E 024°56'4 8.2
2017-May-20 12:29N 37°28' E 025°01'611.8
2017-May-20 12:00N 37°31' E 025°07'2 4.5
2017-May-20 11:30N 37°32' E 025°09'0 0.0
2017-May-20 11:00N 37°32' E 025°09'0 0.0
2017-May-20 10:30N 37°32' E 025°09'0 0.0
2017-May-20 10:00N 37°32' E 025°09'0 0.0
2017-May-20 09:30N 37°32' E 025°09'1 1.3
2017-May-20 09:00N 37°32' E 025°09'611.7
2017-May-20 08:30N 37°29' E 025°15'3 6.7
2017-May-20 08:00N 37°28' E 025°20'0 0.0
2017-May-20 07:30N 37°28' E 025°20'0 0.0
2017-May-20 07:00N 37°28' E 025°20'0 0.0
2017-May-20 06:30N 37°28' E 025°20'0 0.0
2017-May-20 06:00N 37°28' E 025°20'0 0.0
2017-May-20 05:30N 37°28' E 025°20'0 0.0
2017-May-20 05:00N 37°28' E 025°20'0 0.0
2017-May-20 04:30N 37°28' E 025°20'2 4.9
2017-May-20 04:00N 37°29' E 025°17'612.3
2017-May-20 03:30N 37°35' E 025°21'611.7
2017-May-20 03:00N 37°40' E 025°25'5 9.4
2017-May-20 02:30N 37°41' E 025°31'510.3
2017-May-20 02:00N 37°41' E 025°37'510.5
2017-May-20 01:30N 37°41' E 025°44'510.5
2017-May-20 01:00N 37°40' E 025°51'  
2017-May-12 17:11N 36°59' E 025°17'211.0
2017-May-12 17:00N 37°01' E 025°17'  

Dump ship's entire track history